Time;durP1;ratioP1;P1;durP2;ratioP2;P2;SDS_P1;SDS_P2;PMS_P1;PMS_P2;Temp;Humidity;BMP_temperature;BMP_pressure;BME280_temperature;BME280_humidity;BME280_pressure;Samples;Min_cycle;Max_cycle;Signal;HPM_P1;HPM_P2
2023/10/20 06:46:46;;;;;;;;;1.75;1.75;;;;;22.42;60.13;97415.94;5152387;27;45533;-64
2023/10/20 06:49:18;;;;;;;;;1.00;1.00;;;;;22.74;58.93;97412.03;5127931;27;45722;-65
2023/10/20 06:51:43;;;;;;;;;3.00;3.00;;;;;22.91;57.77;97423.19;5122871;27;45968;-65
2023/10/20 06:54:08;;;;;;;;;2.75;2.00;;;;;22.95;56.84;97429.88;5126392;27;45490;-64
2023/10/20 06:56:34;;;;;;;;;2.00;2.00;;;;;23.09;56.82;97431.34;5133608;27;61974;-65
2023/10/20 06:58:59;;;;;;;;;0.50;0.50;;;;;23.18;56.41;97437.31;5130180;27;62495;-64
2023/10/20 07:01:26;;;;;;;;;1.50;1.50;;;;;23.25;55.71;97438.06;5137051;27;53643;-65
2023/10/20 07:03:51;;;;;;;;;1.00;1.00;;;;;23.36;54.98;97440.03;5137656;27;45531;-66
2023/10/20 07:06:17;;;;;;;;;1.00;1.00;;;;;23.46;54.85;97448.50;5640542;22;49341;-66
2023/10/20 07:08:42;;;;;;;;;1.75;1.75;;;;;23.54;55.17;97453.69;5060281;27;59895;-56
2023/10/20 07:11:07;;;;;;;;;1.75;1.75;;;;;23.63;53.99;97449.53;5086087;27;45496;-57
2023/10/20 07:13:33;;;;;;;;;1.00;1.00;;;;;23.42;54.58;97451.91;5075215;28;45446;-54
2023/10/20 07:15:58;;;;;;;;;2.25;2.25;;;;;23.42;55.01;97455.50;5069197;27;45485;-55
2023/10/20 07:18:24;;;;;;;;;1.00;1.00;;;;;23.63;54.17;97438.59;5071462;28;45334;-56
2023/10/20 07:20:50;;;;;;;;;1.75;1.75;;;;;23.66;53.87;97443.59;5074276;28;45422;-56
2023/10/20 07:23:16;;;;;;;;;2.25;2.25;;;;;23.83;53.22;97448.38;5073415;28;45359;-54
2023/10/20 07:28:16;;;;;;;;;3.25;3.25;;;;;23.81;53.41;97442.34;1304362;25;46160;-72
2023/10/20 07:30:42;;;;;;;;;2.00;2.00;;;;;24.01;53.17;97449.13;5098868;27;45793;-75
2023/10/20 07:33:07;;;;;;;;;2.25;2.25;;;;;24.12;52.66;97440.13;5095403;27;45578;-74
2023/10/20 07:38:54;;;;;;;;;2.00;2.00;;;;;23.83;52.55;97451.97;5191987;22;45764;-53
2023/10/20 07:41:20;;;;;;;;;1.00;1.00;;;;;23.99;52.50;97440.31;5088203;27;45380;-57
2023/10/20 07:43:46;;;;;;;;;2.00;2.00;;;;;23.79;52.06;97453.50;5080373;27;45496;-54
2023/10/20 07:46:16;;;;;;;;;1.50;1.50;;;;;23.41;52.79;97475.69;5089774;27;49403;-54
2023/10/20 07:48:41;;;;;;;;;1.75;1.75;;;;;23.67;52.65;97469.03;5081794;27;45377;-52
2023/10/20 07:51:07;;;;;;;;;0.50;0.25;;;;;23.91;51.93;97475.41;5081772;27;45453;-54
2023/10/20 07:53:32;;;;;;;;;0.00;0.00;;;;;23.64;51.26;97466.78;5081458;27;45500;-54
2023/10/20 07:55:58;;;;;;;;;2.25;1.00;;;;;23.84;51.61;97478.25;5079813;28;49840;-52
2023/10/20 08:11:59;;;;;;;;;1.25;1.00;;;;;24.25;51.43;97484.78;5112692;27;45286;-54
2023/10/20 08:14:26;;;;;;;;;2.00;2.00;;;;;24.34;50.17;97483.34;5095737;27;45386;-52
2023/10/20 08:16:51;;;;;;;;;1.00;1.00;;;;;24.63;50.33;97506.22;5095014;27;45371;-51
2023/10/20 08:19:17;;;;;;;;;3.00;3.00;;;;;24.49;50.15;97501.00;5094116;27;45451;-53
2023/10/20 08:21:43;;;;;;;;;4.00;3.00;;;;;24.34;50.50;97506.09;5095444;27;60725;-52
2023/10/20 08:24:09;;;;;;;;;4.00;2.00;;;;;24.49;50.02;97517.44;5096100;27;45892;-56
2023/10/20 08:26:34;;;;;;;;;2.50;2.00;;;;;24.16;50.55;97519.84;5094783;27;45432;-53
2023/10/20 08:28:59;;;;;;;;;2.00;2.00;;;;;24.20;50.56;97507.34;5099666;27;53389;-51
2023/10/20 08:31:25;;;;;;;;;3.00;3.00;;;;;24.25;50.13;97495.72;5097751;27;46428;-54
2023/10/20 08:33:52;;;;;;;;;1.75;1.75;;;;;24.23;50.05;97506.09;5095699;27;45652;-54
2023/10/20 08:36:22;;;;;;;;;4.00;2.75;;;;;24.18;49.80;97505.91;5096970;27;45319;-53
2023/10/20 08:38:50;;;;;;;;;6.75;4.25;;;;;24.31;49.96;97503.84;5104222;27;45505;-54
2023/10/20 08:41:18;;;;;;;;;7.50;6.00;;;;;24.39;49.97;97499.91;5095026;27;46220;-53
2023/10/20 08:43:44;;;;;;;;;4.00;4.00;;;;;24.47;49.86;97508.63;5094928;27;45411;-53
2023/10/20 08:46:11;;;;;;;;;3.00;3.00;;;;;24.22;49.83;97504.41;5096483;27;45525;-54
2023/10/20 08:48:41;;;;;;;;;4.00;4.00;;;;;24.42;49.91;97488.47;5094957;27;45313;-55
2023/10/20 08:51:07;;;;;;;;;4.50;4.25;;;;;24.27;49.30;97497.16;5095293;27;45336;-52
2023/10/20 08:53:35;;;;;;;;;2.00;2.00;;;;;24.02;49.85;97497.31;5094939;27;45371;-51
2023/10/20 08:56:03;;;;;;;;;5.00;5.00;;;;;23.98;50.19;97504.34;5095338;27;45332;-52
2023/10/20 08:58:29;;;;;;;;;2.50;2.50;;;;;24.43;49.76;97501.94;5095057;27;45444;-53
2023/10/20 09:00:55;;;;;;;;;2.25;2.25;;;;;24.70;48.90;97515.16;5094954;27;46108;-53
2023/10/20 09:03:20;;;;;;;;;4.00;2.00;;;;;24.85;48.79;97523.72;5095158;27;45306;-50
2023/10/20 09:05:46;;;;;;;;;2.00;2.00;;;;;25.00;48.25;97518.63;5094789;27;49722;-52
2023/10/20 09:08:12;;;;;;;;;3.25;3.25;;;;;24.99;47.74;97519.69;5095086;27;45430;-52
2023/10/20 09:10:42;;;;;;;;;2.00;2.00;;;;;24.95;47.99;97528.63;5094220;27;45479;-55
2023/10/20 09:13:08;;;;;;;;;2.00;2.00;;;;;24.74;48.47;97527.31;5080839;27;45315;-52
2023/10/20 09:15:34;;;;;;;;;4.00;4.00;;;;;25.04;47.49;97536.25;5081175;27;45243;-55
2023/10/20 09:18:00;;;;;;;;;2.25;2.00;;;;;24.87;48.55;97532.53;5081001;28;45725;-53
2023/10/20 09:20:26;;;;;;;;;2.25;2.25;;;;;24.87;47.72;97535.28;5081187;27;47003;-54
2023/10/20 09:22:51;;;;;;;;;1.75;1.75;;;;;24.75;47.98;97537.22;5080582;27;45354;-54
2023/10/20 09:25:17;;;;;;;;;2.00;2.00;;;;;24.63;48.34;97528.97;5081523;28;45364;-54
2023/10/20 09:27:43;;;;;;;;;1.50;1.50;;;;;24.70;48.71;97532.44;5080836;27;45516;-52
2023/10/20 09:30:09;;;;;;;;;4.00;2.00;;;;;24.72;48.45;97535.78;5081201;27;45407;-50
2023/10/20 09:32:43;;;;;;;;;3.00;3.00;;;;;24.64;48.31;97535.28;5081052;27;45264;-53
2023/10/20 09:35:09;;;;;;;;;3.75;2.00;;;;;24.45;48.32;97535.41;5081025;27;51366;-54
2023/10/20 09:37:38;;;;;;;;;3.25;3.25;;;;;24.60;48.73;97528.59;5081073;27;45319;-55
2023/10/20 09:40:08;;;;;;;;;4.25;3.00;;;;;24.54;48.86;97524.09;5081136;27;45700;-55
2023/10/20 09:42:43;;;;;;;;;2.25;2.00;;;;;24.74;48.60;97532.78;5080806;27;45553;-52
2023/10/20 09:45:14;;;;;;;;;3.00;2.50;;;;;24.49;48.66;97544.81;5080986;28;45513;-53
2023/10/20 09:47:43;;;;;;;;;1.75;1.75;;;;;24.45;49.50;97534.56;5080485;28;45432;-54
2023/10/20 09:50:11;;;;;;;;;3.00;3.00;;;;;24.47;48.86;97533.25;5080736;27;47098;-54
2023/10/20 09:52:38;;;;;;;;;3.00;3.00;;;;;24.81;48.67;97530.75;5080793;27;45251;-55
2023/10/20 09:55:05;;;;;;;;;3.00;2.50;;;;;25.11;48.25;97547.91;5080936;27;45406;-54
2023/10/20 09:57:30;;;;;;;;;6.25;3.25;;;;;25.35;47.67;97540.47;5078631;28;45440;-54
2023/10/20 09:59:57;;;;;;;;;4.00;4.00;;;;;25.50;46.68;97564.66;5080775;27;46208;-55
2023/10/20 10:02:31;;;;;;;;;2.00;2.00;;;;;25.61;46.58;97561.06;5080428;27;45402;-54
2023/10/20 10:04:57;;;;;;;;;2.50;2.50;;;;;25.63;46.48;97557.00;5079881;27;45488;-53
2023/10/20 10:07:31;;;;;;;;;7.25;4.75;;;;;25.79;46.58;97560.03;5080660;27;45923;-54
2023/10/20 10:09:58;;;;;;;;;3.75;3.00;;;;;25.78;46.29;97559.19;5079839;27;46193;-53
2023/10/20 10:12:27;;;;;;;;;4.25;3.00;;;;;25.65;46.12;97559.50;5079748;27;45330;-54
2023/10/20 10:15:05;;;;;;;;;4.25;4.00;;;;;25.55;46.75;97562.84;5080831;27;45338;-55
2023/10/20 10:17:31;;;;;;;;;5.25;2.75;;;;;25.57;47.59;97570.84;5079865;27;45874;-54
2023/10/20 10:19:56;;;;;;;;;2.75;2.75;;;;;25.59;46.70;97574.22;5080118;27;45358;-55
2023/10/20 10:22:26;;;;;;;;;3.00;3.00;;;;;25.56;47.87;97578.22;5077475;28;45474;-56
2023/10/20 10:24:56;;;;;;;;;3.00;3.00;;;;;25.30;48.43;97576.03;5078501;27;45345;-54
2023/10/20 10:27:26;;;;;;;;;3.75;3.75;;;;;25.43;48.58;97589.50;5080329;27;45456;-53
2023/10/20 10:29:59;;;;;;;;;7.00;4.00;;;;;25.36;48.79;97587.91;5078564;28;46387;-55
2023/10/20 10:32:28;;;;;;;;;4.00;2.00;;;;;25.37;48.80;97579.47;5080136;28;45260;-52
2023/10/20 10:34:54;;;;;;;;;3.75;3.75;;;;;25.21;48.64;97586.53;5080435;27;45480;-55
2023/10/20 10:37:36;;;;;;;;;2.00;1.00;;;;;25.22;48.90;97587.38;5080219;27;45442;-54
2023/10/20 10:40:13;;;;;;;;;6.25;4.00;;;;;25.36;49.25;97583.28;5078800;28;47212;-55
2023/10/20 10:42:40;;;;;;;;;3.50;3.50;;;;;25.38;49.24;97585.78;5080403;27;45242;-52
2023/10/20 10:45:31;;;;;;;;;3.00;3.00;;;;;25.39;49.02;97577.31;5080053;27;45421;-53
2023/10/20 10:48:14;;;;;;;;;3.75;3.75;;;;;25.54;48.80;97577.63;5079893;27;46018;-53
2023/10/20 10:50:42;;;;;;;;;4.50;4.00;;;;;25.62;48.45;97581.94;5079888;27;46312;-52
2023/10/20 10:53:08;;;;;;;;;3.00;3.00;;;;;25.49;48.34;97584.94;5080061;27;45345;-53
2023/10/20 10:55:38;;;;;;;;;3.50;3.50;;;;;25.71;48.41;97583.22;5080107;27;45233;-53
2023/10/20 10:58:10;;;;;;;;;4.00;4.00;;;;;25.85;48.16;97589.28;5080080;27;45405;-53
2023/10/20 11:00:37;;;;;;;;;5.75;5.00;;;;;26.12;48.01;97592.22;5078315;28;47663;-52
2023/10/20 11:03:04;;;;;;;;;3.25;3.25;;;;;26.23;46.79;97589.44;5080036;28;45520;-54
2023/10/20 11:05:31;;;;;;;;;4.00;4.00;;;;;26.55;46.25;97589.75;5079803;28;45325;-55
2023/10/20 11:08:05;;;;;;;;;3.00;3.00;;;;;26.64;45.57;97571.75;5078431;28;47415;-52
2023/10/20 11:10:42;;;;;;;;;2.00;2.00;;;;;26.69;45.04;97574.63;5078671;27;46379;-55
2023/10/20 11:13:13;;;;;;;;;4.00;4.00;;;;;26.57;45.89;97590.34;5079689;27;45404;-54
2023/10/20 11:15:40;;;;;;;;;4.75;4.75;;;;;26.46;45.29;97584.91;5079398;27;45275;-55
2023/10/20 11:18:06;;;;;;;;;3.00;3.00;;;;;26.60;45.40;97581.59;5079798;27;45440;-54
2023/10/20 11:20:36;;;;;;;;;2.00;2.00;;;;;26.48;45.25;97589.09;5079241;27;46316;-54
2023/10/20 11:23:03;;;;;;;;;3.00;3.00;;;;;26.50;45.01;97589.69;5079314;28;45399;-53
2023/10/20 11:25:29;;;;;;;;;3.00;3.00;;;;;26.57;44.62;97582.09;5095100;27;45473;-54
2023/10/20 11:27:55;;;;;;;;;3.75;3.75;;;;;26.28;45.53;97584.09;5079592;27;45326;-53
2023/10/20 11:30:31;;;;;;;;;3.00;3.00;;;;;26.31;46.50;97569.84;5078902;27;45342;-52
2023/10/20 11:32:56;;;;;;;;;1.50;1.50;;;;;26.12;46.26;97578.50;5079296;27;45264;-54
2023/10/20 11:35:24;;;;;;;;;6.25;3.25;;;;;26.19;46.93;97584.69;5079278;27;45371;-51
2023/10/20 11:37:53;;;;;;;;;3.00;3.00;;;;;26.52;46.32;97562.78;5079435;27;45416;-53
2023/10/20 11:40:19;;;;;;;;;5.75;5.75;;;;;26.95;46.41;97570.38;5079221;27;45333;-59
2023/10/20 11:42:45;;;;;;;;;3.00;3.00;;;;;28.08;44.07;97563.28;5079273;27;45373;-58
2023/10/20 11:45:11;;;;;;;;;5.75;3.25;;;;;29.40;40.66;97558.06;5078140;28;45301;-57
2023/10/20 11:47:39;;;;;;;;;2.75;2.75;;;;;30.09;39.06;97566.91;5078598;27;45508;-57
2023/10/20 11:50:08;;;;;;;;;4.75;4.75;;;;;31.20;36.75;97558.69;5079294;27;46374;-58
2023/10/20 11:52:35;;;;;;;;;2.00;2.00;;;;;32.15;35.65;97549.44;5077646;27;45483;-58
2023/10/20 11:55:00;;;;;;;;;2.75;2.75;;;;;33.23;32.71;97549.16;5078734;27;45262;-57
2023/10/20 11:57:26;;;;;;;;;4.75;2.00;;;;;34.02;31.82;97539.31;5078864;27;45256;-58
2023/10/20 11:59:51;;;;;;;;;2.00;2.00;;;;;34.52;30.66;97548.06;5078300;28;53182;-59
2023/10/20 12:02:17;;;;;;;;;3.25;3.25;;;;;35.04;29.17;97548.88;5076867;27;45708;-59
2023/10/20 12:04:42;;;;;;;;;1.75;1.75;;;;;35.39;29.58;97547.41;5070482;28;45500;-58
2023/10/20 12:07:09;;;;;;;;;3.00;3.00;;;;;35.64;29.12;97544.91;5076229;27;61892;-58
2023/10/20 12:09:34;;;;;;;;;2.00;2.00;;;;;35.14;27.67;97543.09;5077076;27;45515;-59
2023/10/20 12:11:59;;;;;;;;;2.75;2.75;;;;;35.21;28.52;97549.09;5079392;27;52697;-58
2023/10/20 12:14:26;;;;;;;;;1.00;1.00;;;;;35.62;28.05;97551.94;5078235;27;45379;-58
2023/10/20 12:16:51;;;;;;;;;1.00;1.00;;;;;36.10;27.63;97555.13;5077673;27;45422;-59
2023/10/20 12:19:18;;;;;;;;;2.00;2.00;;;;;36.76;27.08;97543.25;5078409;28;45925;-57
2023/10/20 12:21:43;;;;;;;;;2.67;2.00;;;;;36.94;26.01;97544.19;5077363;27;45520;-57
2023/10/20 12:24:09;;;;;;;;;4.50;2.00;;;;;36.86;25.61;97539.38;5078181;28;45378;-58
2023/10/20 12:26:34;;;;;;;;;1.50;1.50;;;;;37.03;25.70;97539.50;5078107;28;45475;-57
2023/10/20 12:28:59;;;;;;;;;1.75;1.75;;;;;37.58;25.33;97527.97;5078513;27;45427;-58
2023/10/20 12:31:25;;;;;;;;;1.67;1.67;;;;;37.81;25.23;97535.13;5077905;28;45336;-57
2023/10/20 12:33:51;;;;;;;;;1.67;0.67;;;;;38.36;24.63;97526.19;5078321;27;45321;-59
2023/10/20 12:36:16;;;;;;;;;2.00;1.00;;;;;38.21;24.02;97524.69;5078206;28;45374;-58
2023/10/20 12:38:43;;;;;;;;;1.00;1.00;;;;;38.26;24.28;97526.50;5077899;27;46032;-58
2023/10/20 12:41:12;;;;;;;;;1.00;1.00;;;;;38.47;23.80;97530.28;5077982;27;45345;-58
2023/10/20 12:43:37;;;;;;;;;2.00;2.00;;;;;37.92;24.58;97523.63;5078171;28;45484;-58
2023/10/20 12:46:04;;;;;;;;;1.33;1.00;;;;;37.12;25.06;97528.38;5077471;27;45979;-59
2023/10/20 12:48:30;;;;;;;;;4.00;1.00;;;;;36.64;26.21;97520.66;5080740;27;46045;-58
2023/10/20 12:50:56;;;;;;;;;3.00;1.00;;;;;36.06;26.45;97520.66;5080431;27;45255;-58
2023/10/20 12:53:23;;;;;;;;;1.00;1.00;;;;;35.20;27.45;97525.19;5081886;27;45350;-59
2023/10/20 12:55:48;;;;;;;;;1.00;1.00;;;;;34.25;28.30;97523.72;5081372;27;45460;-58
2023/10/20 12:58:13;;;;;;;;;3.00;1.00;;;;;33.88;29.18;97520.88;5081269;27;45330;-58
2023/10/20 13:00:39;;;;;;;;;1.00;1.00;;;;;33.47;30.00;97523.34;5081088;27;45318;-58
2023/10/20 13:03:06;;;;;;;;;1.00;1.00;;;;;32.63;31.35;97515.25;5081642;27;45318;-58
2023/10/20 13:05:33;;;;;;;;;3.00;1.00;;;;;32.17;32.42;97513.97;5080070;28;45347;-58
2023/10/20 13:07:58;;;;;;;;;2.00;2.00;;;;;31.68;32.97;97520.31;5081186;27;46202;-57
2023/10/20 13:10:24;;;;;;;;;3.75;2.25;;;;;31.48;33.00;97512.06;5080466;27;45388;-58
2023/10/20 13:12:50;;;;;;;;;1.50;1.50;;;;;30.84;33.35;97518.31;5081541;27;45626;-58
2023/10/20 13:15:19;;;;;;;;;1.25;1.25;;;;;30.61;34.71;97529.97;5080795;27;45299;-58
2023/10/20 13:17:45;;;;;;;;;2.00;1.75;;;;;30.59;35.22;97526.63;5081080;27;46146;-58
2023/10/20 13:20:12;;;;;;;;;1.50;1.50;;;;;30.13;35.66;97529.31;5080834;27;45517;-59
2023/10/20 13:22:37;;;;;;;;;1.00;1.00;;;;;29.82;36.27;97528.41;5079597;28;45447;-59
2023/10/20 13:25:03;;;;;;;;;6.50;1.50;;;;;29.54;37.01;97528.84;5081262;27;45384;-58
2023/10/20 13:27:29;;;;;;;;;3.75;1.00;;;;;29.68;36.42;97535.56;5080902;27;45949;-58
2023/10/20 13:29:56;;;;;;;;;0.50;0.50;;;;;29.87;36.32;97533.94;5081010;27;45794;-59
2023/10/20 13:32:23;;;;;;;;;2.50;1.25;;;;;29.93;36.81;97535.63;5080843;27;45403;-58
2023/10/20 13:34:49;;;;;;;;;0.00;0.00;;;;;29.86;36.40;97520.44;5080520;27;45378;-58
2023/10/20 13:37:14;;;;;;;;;0.25;0.25;;;;;29.99;35.75;97529.03;5080609;27;45360;-58
2023/10/20 13:39:40;;;;;;;;;2.50;1.00;;;;;30.66;35.67;97510.59;5080298;27;45285;-58
2023/10/20 13:42:06;;;;;;;;;3.00;1.25;;;;;31.25;34.93;97521.84;5081021;27;45413;-58
2023/10/20 13:44:32;;;;;;;;;1.00;1.00;;;;;31.27;35.32;97518.78;5080669;27;46091;-57
2023/10/20 13:46:58;;;;;;;;;2.50;1.25;;;;;31.14;34.81;97515.50;5080546;27;46106;-57
2023/10/20 13:49:23;;;;;;;;;3.00;1.25;;;;;31.04;35.40;97523.81;5080796;27;45465;-59
2023/10/20 13:51:49;;;;;;;;;1.50;1.50;;;;;30.90;35.34;97519.94;5081201;28;45355;-58
2023/10/20 13:54:15;;;;;;;;;1.00;1.00;;;;;30.82;34.93;97534.34;5078940;28;46260;-58
2023/10/20 13:56:40;;;;;;;;;1.00;1.00;;;;;30.50;35.79;97531.84;5080033;27;47127;-58
2023/10/20 13:59:06;;;;;;;;;1.00;1.00;;;;;30.30;36.21;97532.66;5078056;27;45280;-58
2023/10/20 14:01:31;;;;;;;;;3.75;1.75;;;;;29.88;36.71;97520.97;5080120;27;45896;-58
2023/10/20 14:03:56;;;;;;;;;3.25;1.75;;;;;30.05;36.84;97532.63;5080443;27;45492;-59
2023/10/20 14:06:24;;;;;;;;;1.50;1.50;;;;;30.67;35.42;97523.31;5080636;27;47119;-59
2023/10/20 14:08:50;;;;;;;;;1.25;1.25;;;;;31.41;34.03;97523.44;5078785;28;45442;-58
2023/10/20 14:11:15;;;;;;;;;1.75;1.75;;;;;32.16;33.30;97520.63;5080443;27;45468;-58
2023/10/20 14:13:41;;;;;;;;;0.75;0.75;;;;;32.90;31.84;97517.53;5079928;27;45504;-58
2023/10/20 14:16:06;;;;;;;;;2.75;1.00;;;;;33.43;30.74;97498.91;5079539;28;45390;-58
2023/10/20 14:18:32;;;;;;;;;1.00;1.00;;;;;33.61;30.45;97504.81;5079964;28;52156;-58
2023/10/20 14:20:58;;;;;;;;;1.00;1.00;;;;;33.96;29.43;97518.25;5080636;27;45656;-57
2023/10/20 14:23:27;;;;;;;;;2.00;0.50;;;;;34.42;29.34;97526.78;5079802;27;45561;-58
2023/10/20 14:25:59;;;;;;;;;1.00;1.00;;;;;34.25;28.29;97523.72;5079498;27;46629;-57
2023/10/20 14:28:31;;;;;;;;;0.00;0.00;;;;;34.35;28.31;97529.13;5080206;27;45346;-58
2023/10/20 14:31:03;;;;;;;;;0.00;0.00;;;;;34.29;28.13;97521.13;5080147;27;45303;-58
2023/10/20 14:33:29;;;;;;;;;0.00;0.00;;;;;34.10;28.18;97533.09;5080200;27;45417;-58
2023/10/20 14:35:56;;;;;;;;;0.00;0.00;;;;;33.98;28.33;97529.09;5078963;27;45265;-58
2023/10/20 14:38:29;;;;;;;;;2.00;1.00;;;;;33.83;29.17;97534.84;5079804;27;45638;-58
2023/10/20 14:41:06;;;;;;;;;0.00;0.00;;;;;33.49;28.72;97529.44;5079106;27;45457;-58
2023/10/20 14:43:33;;;;;;;;;0.50;0.50;;;;;32.74;29.84;97529.91;5066555;28;45362;-59
2023/10/20 14:45:59;;;;;;;;;1.00;1.00;;;;;32.56;30.41;97523.09;5079477;27;46109;-62
2023/10/20 14:48:26;;;;;;;;;0.75;0.75;;;;;32.23;30.80;97537.78;5080252;27;45353;-61
2023/10/20 14:50:52;;;;;;;;;1.00;1.00;;;;;31.91;31.32;97533.47;5080124;27;45668;-60
2023/10/20 14:53:18;;;;;;;;;1.00;0.50;;;;;31.50;32.21;97537.53;5080314;28;45408;-61
2023/10/20 14:55:43;;;;;;;;;0.00;0.00;;;;;31.37;32.30;97536.22;5079301;27;45456;-61
2023/10/20 14:58:08;;;;;;;;;2.00;0.50;;;;;31.25;32.78;97534.84;5079399;28;56104;-61
2023/10/20 15:00:36;;;;;;;;;0.75;0.75;;;;;31.17;33.09;97531.56;5079747;27;46053;-61
2023/10/20 15:03:01;;;;;;;;;0.50;0.50;;;;;30.95;33.70;97536.56;5079890;28;45287;-61
2023/10/20 15:05:27;;;;;;;;;0.00;0.00;;;;;30.64;34.25;97541.28;5079386;28;45322;-62
2023/10/20 15:07:52;;;;;;;;;0.00;0.00;;;;;30.52;34.57;97539.91;5079915;27;45388;-62
2023/10/20 15:10:17;;;;;;;;;2.00;0.50;;;;;30.44;34.25;97532.97;5078376;27;45410;-61
2023/10/20 15:12:45;;;;;;;;;0.75;0.75;;;;;29.99;35.53;97542.03;5079877;27;46202;-62
2023/10/20 15:15:10;;;;;;;;;2.00;0.50;;;;;29.55;36.04;97536.88;5079305;28;45275;-62
2023/10/20 15:17:35;;;;;;;;;2.00;1.00;;;;;29.62;35.97;97540.22;5079079;27;58522;-62
2023/10/20 15:20:01;;;;;;;;;0.25;0.25;;;;;29.66;36.72;97535.81;5078960;27;45415;-61
2023/10/20 15:22:26;;;;;;;;;0.50;0.50;;;;;29.68;35.98;97539.16;5079122;27;45284;-61
2023/10/20 15:24:53;;;;;;;;;2.75;1.00;;;;;29.72;36.48;97536.66;5078482;28;59015;-60
2023/10/20 15:27:18;;;;;;;;;1.00;1.00;;;;;29.81;36.03;97525.91;5078800;27;45622;-61
2023/10/20 15:29:44;;;;;;;;;1.00;1.00;;;;;30.06;35.74;97548.94;5079465;27;45527;-62
2023/10/20 15:32:10;;;;;;;;;1.50;1.50;;;;;30.33;36.01;97529.38;5079311;28;45638;-62
2023/10/20 15:34:35;;;;;;;;;2.75;0.50;;;;;30.65;35.04;97544.88;5079277;27;46017;-62
2023/10/20 15:37:01;;;;;;;;;1.25;1.25;;;;;30.87;34.75;97533.53;5072617;28;45349;-66
2023/10/20 15:39:26;;;;;;;;;0.50;0.50;;;;;30.90;34.65;97525.50;5071671;28;45334;-62
2023/10/20 15:41:51;;;;;;;;;1.25;0.50;;;;;30.91;35.00;97526.31;5077609;28;49810;-65
2023/10/20 15:44:17;;;;;;;;;1.75;1.75;;;;;30.92;35.26;97531.56;5074496;27;46236;-65
2023/10/20 15:46:44;;;;;;;;;2.25;1.75;;;;;30.89;35.90;97523.81;5072937;28;45509;-66
2023/10/20 15:49:09;;;;;;;;;0.75;0.75;;;;;30.72;36.16;97550.94;5072025;28;45441;-66
2023/10/20 15:51:34;;;;;;;;;0.75;0.75;;;;;30.60;36.76;97551.25;5082072;27;45308;-64
2023/10/20 15:54:00;;;;;;;;;0.00;0.00;;;;;30.54;37.14;97548.75;5079255;28;46445;-66
2023/10/20 15:56:25;;;;;;;;;3.00;2.00;;;;;30.43;36.81;97543.19;5078978;27;45203;-66
2023/10/20 15:58:50;;;;;;;;;0.50;0.50;;;;;30.45;37.30;97551.22;5079366;28;45231;-67
2023/10/20 16:01:15;;;;;;;;;0.75;0.75;;;;;30.48;36.57;97548.72;5078065;28;56979;-66
2023/10/20 16:03:41;;;;;;;;;2.50;2.50;;;;;30.28;37.22;97559.78;5078955;28;45315;-65
2023/10/20 16:06:11;;;;;;;;;1.75;1.75;;;;;30.13;37.75;97553.38;5078930;27;45393;-66
2023/10/20 16:08:37;;;;;;;;;0.50;0.50;;;;;30.11;38.25;97558.34;5079105;28;45381;-66
2023/10/20 16:11:02;;;;;;;;;2.25;1.50;;;;;30.06;37.37;97556.41;5078343;27;45602;-67
2023/10/20 16:13:27;;;;;;;;;4.00;3.00;;;;;29.85;37.13;97552.75;5078740;28;46278;-67
2023/10/20 16:15:53;;;;;;;;;4.25;3.00;;;;;29.81;37.96;97551.59;5078583;27;45329;-67
2023/10/20 16:18:18;;;;;;;;;1.50;1.50;;;;;29.78;38.25;97560.41;5078996;27;45315;-66
2023/10/20 16:20:45;;;;;;;;;1.00;1.00;;;;;29.63;37.80;97547.41;5078285;28;54578;-67
2023/10/20 16:23:11;;;;;;;;;3.00;1.25;;;;;29.57;38.40;97555.94;5082215;27;45251;-63
2023/10/20 16:25:37;;;;;;;;;0.25;0.25;;;;;29.51;38.72;97544.06;5082290;27;45284;-65
2023/10/20 16:28:03;;;;;;;;;2.00;1.75;;;;;29.46;38.50;97555.06;5082330;27;45342;-66
2023/10/20 16:30:28;;;;;;;;;4.00;3.00;;;;;29.39;38.33;97546.19;5081695;27;45330;-65
2023/10/20 16:32:53;;;;;;;;;3.00;2.25;;;;;29.30;38.93;97553.28;5081907;27;45892;-65
2023/10/20 16:35:19;;;;;;;;;1.00;1.00;;;;;29.37;38.14;97553.91;5081651;28;52056;-65
2023/10/20 16:37:45;;;;;;;;;1.75;1.75;;;;;29.39;37.81;97557.22;5082501;27;45227;-66
2023/10/20 16:40:11;;;;;;;;;2.50;1.50;;;;;29.34;38.49;97563.53;5081911;27;45401;-65
2023/10/20 16:42:37;;;;;;;;;1.75;1.50;;;;;29.29;37.98;97554.38;5081919;27;45404;-66
2023/10/20 16:45:06;;;;;;;;;2.75;2.00;;;;;29.24;38.47;97559.88;5081667;27;45347;-66
2023/10/20 16:47:33;;;;;;;;;2.00;2.00;;;;;29.26;37.77;97569.53;5081917;27;45318;-66
2023/10/20 16:49:59;;;;;;;;;2.00;2.00;;;;;29.21;37.98;97565.94;5081807;27;45429;-66
2023/10/20 16:52:24;;;;;;;;;0.75;0.75;;;;;29.15;38.42;97576.13;5081632;27;46339;-65
2023/10/20 16:54:51;;;;;;;;;3.00;1.50;;;;;28.98;38.35;97567.16;5081923;28;45746;-66
2023/10/20 16:57:18;;;;;;;;;1.75;1.75;;;;;28.95;38.58;97573.22;5081725;27;45325;-65
2023/10/20 16:59:43;;;;;;;;;3.00;1.75;;;;;28.93;38.03;97573.47;5081711;27;45626;-66
2023/10/20 17:02:09;;;;;;;;;2.75;1.75;;;;;28.94;37.62;97571.53;5081057;28;61452;-67
2023/10/20 17:04:34;;;;;;;;;2.75;2.75;;;;;28.92;37.96;97584.78;5068115;28;45363;-67
2023/10/20 17:06:59;;;;;;;;;2.00;2.00;;;;;28.87;38.65;97577.28;5082065;28;45298;-66
2023/10/20 17:09:25;;;;;;;;;3.50;3.00;;;;;28.91;38.93;97586.72;5081524;28;45508;-67
2023/10/20 17:11:50;;;;;;;;;2.75;2.75;;;;;28.88;39.52;97590.00;5081499;27;46532;-67
2023/10/20 17:14:15;;;;;;;;;1.75;1.75;;;;;28.86;39.85;97583.06;5081648;28;45334;-66
2023/10/20 17:16:43;;;;;;;;;3.50;1.75;;;;;28.93;39.09;97594.69;5081418;28;45292;-67
2023/10/20 17:19:09;;;;;;;;;4.00;2.75;;;;;28.90;39.96;97598.84;5084663;27;45298;-66
2023/10/20 17:21:35;;;;;;;;;4.75;4.25;;;;;28.90;39.13;97601.59;5086684;27;45518;-60
2023/10/20 17:24:01;;;;;;;;;4.25;3.00;;;;;28.81;38.95;97614.22;5080056;27;45650;-59
2023/10/20 17:26:26;;;;;;;;;0.00;0.00;;;;;28.57;38.96;97637.66;5080779;27;52366;-58
2023/10/20 17:28:51;;;;;;;;;1.25;1.25;;;;;28.41;39.34;97638.63;5081214;27;45418;-60
2023/10/20 17:31:16;;;;;;;;;0.50;0.50;;;;;28.19;39.77;97633.13;5080963;27;45422;-59
2023/10/20 17:33:42;;;;;;;;;0.50;0.50;;;;;27.89;39.53;97652.03;5080867;27;45373;-60
2023/10/20 17:36:08;;;;;;;;;0.00;0.00;;;;;27.18;40.62;97660.09;5081702;27;45376;-59
2023/10/20 17:38:33;;;;;;;;;1.00;1.00;;;;;26.74;42.74;97681.88;5081133;27;45404;-59
2023/10/20 17:41:03;;;;;;;;;0.00;0.00;;;;;26.45;43.08;97660.19;5080945;27;46361;-58
2023/10/20 17:43:30;;;;;;;;;0.00;0.00;;;;;26.48;43.59;97674.25;5080865;27;45368;-58
2023/10/20 17:45:56;;;;;;;;;0.00;0.00;;;;;26.28;42.63;97662.91;5080592;27;45356;-59
2023/10/20 17:48:21;;;;;;;;;0.00;0.00;;;;;26.05;41.65;97668.44;5080703;28;45487;-58
2023/10/20 17:50:47;;;;;;;;;0.00;0.00;;;;;26.17;42.42;97670.06;5078464;28;45702;-58
2023/10/20 17:53:12;;;;;;;;;0.00;0.00;;;;;26.13;42.88;97666.13;5080761;28;45392;-59
2023/10/20 17:55:42;;;;;;;;;0.00;0.00;;;;;26.14;42.05;97661.47;5080918;27;45504;-59
2023/10/20 17:58:08;;;;;;;;;0.00;0.00;;;;;26.06;42.16;97653.63;5080467;27;45558;-59
2023/10/20 18:00:34;;;;;;;;;1.00;1.00;;;;;26.17;42.70;97672.81;5080179;27;46858;-60
2023/10/20 18:02:59;;;;;;;;;1.00;1.00;;;;;26.05;42.84;97662.94;5080400;28;45195;-57
2023/10/20 18:05:32;;;;;;;;;1.00;1.00;;;;;26.16;43.07;97686.78;5080529;27;45477;-59
2023/10/20 18:07:57;;;;;;;;;1.50;1.00;;;;;26.02;43.57;97705.47;5080296;28;45401;-59
2023/10/20 18:10:23;;;;;;;;;2.00;2.00;;;;;25.93;44.63;97707.75;5079859;27;45995;-59
2023/10/20 18:12:49;;;;;;;;;2.75;1.00;;;;;25.73;45.49;97704.56;5075633;28;45312;-59
2023/10/20 18:15:15;;;;;;;;;1.50;1.50;;;;;25.47;46.39;97718.75;5079870;27;45469;-59
2023/10/20 18:17:40;;;;;;;;;2.25;2.25;;;;;25.47;46.16;97707.75;5079559;28;45390;-59
2023/10/20 18:20:07;;;;;;;;;2.75;1.50;;;;;25.69;46.47;97719.00;5078643;27;45497;-59
2023/10/20 18:22:32;;;;;;;;;3.00;3.00;;;;;25.81;46.24;97722.56;5079991;27;45398;-58
2023/10/20 18:24:57;;;;;;;;;2.00;2.00;;;;;25.67;46.30;97718.41;5080138;27;45420;-59
2023/10/20 18:27:23;;;;;;;;;1.00;1.00;;;;;25.70;45.98;97718.75;5078730;28;45327;-58
2023/10/20 18:29:48;;;;;;;;;1.75;1.75;;;;;25.52;46.38;97718.88;5079501;28;52122;-59
2023/10/20 18:32:13;;;;;;;;;2.50;2.00;;;;;25.42;46.01;97704.91;5079319;27;45425;-60
2023/10/20 18:34:39;;;;;;;;;2.25;2.25;;;;;25.44;46.30;97720.03;5079266;27;45318;-59
2023/10/20 18:37:04;;;;;;;;;3.00;1.25;;;;;25.52;46.67;97722.41;5079310;28;56749;-58